Time;durP1;ratioP1;P1;durP2;ratioP2;P2;SDS_P1;SDS_P2;PMS_P1;PMS_P2;Temp;Humidity;BMP_temperature;BMP_pressure;BME280_temperature;BME280_humidity;BME280_pressure;Samples;Min_cycle;Max_cycle;Signal;HPM_P1;HPM_P2
2022/12/18 00:02:00;;;;;;;27.00;14.40;;;-3.20;44.10;;;;;;4926717;28;21122;-84
2022/12/18 00:04:28;;;;;;;25.40;15.53;;;-3.40;44.50;;;;;;4900903;29;20491;-85
2022/12/18 00:06:55;;;;;;;25.57;13.70;;;-3.40;44.80;;;;;;4880637;29;20572;-85
2022/12/18 00:09:22;;;;;;;25.33;12.57;;;-3.30;44.50;;;;;;4911742;29;20460;-83
2022/12/18 00:11:49;;;;;;;27.03;16.17;;;-3.20;44.40;;;;;;4896319;29;20946;-82
2022/12/18 00:14:17;;;;;;;32.57;12.77;;;-3.10;44.60;;;;;;4909454;29;20472;-83
2022/12/18 00:16:46;;;;;;;23.70;13.57;;;-3.10;44.60;;;;;;4895118;29;20485;-84
2022/12/18 00:19:14;;;;;;;23.27;12.50;;;-3.00;44.40;;;;;;4910598;29;20466;-84
2022/12/18 00:21:42;;;;;;;23.80;11.77;;;-3.10;44.30;;;;;;4894235;29;20455;-84
2022/12/18 00:24:10;;;;;;;22.10;12.53;;;-3.20;44.50;;;;;;4912722;29;20470;-86
2022/12/18 00:26:38;;;;;;;24.13;11.80;;;-3.50;45.00;;;;;;4892463;29;20925;-83
2022/12/18 00:29:08;;;;;;;31.70;11.93;;;-3.60;46.00;;;;;;4878205;29;20872;-84
2022/12/18 00:31:36;;;;;;;37.00;17.40;;;-3.60;46.20;;;;;;4900845;29;20868;-82
2022/12/18 00:34:04;;;;;;;27.00;12.43;;;-3.50;45.80;;;;;;4920437;29;20912;-85
2022/12/18 00:36:34;;;;;;;38.33;14.17;;;-3.40;45.00;;;;;;4882432;29;20451;-82
2022/12/18 00:39:05;;;;;;;26.97;12.97;;;-3.50;44.80;;;;;;4898521;29;20481;-83
2022/12/18 00:44:18;;;;;;;23.00;13.90;;;-3.50;44.60;;;;;;4884169;29;20475;-84
2022/12/18 00:46:48;;;;;;;17.23;9.23;;;-3.50;44.70;;;;;;4925563;28;21016;-84
2022/12/18 00:49:16;;;;;;;30.50;14.03;;;-3.40;44.90;;;;;;4890319;29;21005;-84
2022/12/18 00:51:43;;;;;;;21.80;11.17;;;-3.50;44.90;;;;;;4919598;29;20479;-85
2022/12/18 00:54:11;;;;;;;20.30;12.40;;;-3.50;44.90;;;;;;4905936;29;20480;-85
2022/12/18 00:56:38;;;;;;;17.57;9.70;;;-3.50;44.90;;;;;;4924612;28;20885;-84
2022/12/18 00:59:05;;;;;;;36.33;11.87;;;-3.50;44.60;;;;;;4896065;29;20456;-84
2022/12/18 01:01:33;;;;;;;26.20;13.90;;;-3.60;44.20;;;;;;4905148;29;21046;-85
2022/12/18 01:04:03;;;;;;;23.50;11.00;;;-3.60;44.20;;;;;;4913314;29;20482;-84
2022/12/18 01:06:30;;;;;;;20.93;10.83;;;-3.50;44.30;;;;;;4889781;29;20452;-85
2022/12/18 01:08:58;;;;;;;25.93;11.50;;;-3.40;44.10;;;;;;4887852;29;20478;-84
2022/12/18 01:11:25;;;;;;;31.10;13.63;;;-3.40;44.30;;;;;;4896671;29;20510;-86
2022/12/18 01:13:54;;;;;;;36.90;12.57;;;-3.40;44.30;;;;;;4891852;29;20889;-85
2022/12/18 01:16:23;;;;;;;34.00;15.17;;;-3.40;44.90;;;;;;4893631;29;20461;-84
2022/12/18 01:18:53;;;;;;;23.27;13.40;;;-3.40;45.30;;;;;;4898425;29;21088;-85
2022/12/18 01:21:23;;;;;;;33.97;16.47;;;-3.70;45.20;;;;;;4905065;29;20456;-85
2022/12/18 01:23:53;;;;;;;27.30;10.20;;;-3.60;46.10;;;;;;4886095;29;20490;-86
2022/12/18 01:26:20;;;;;;;22.57;13.80;;;-3.60;45.30;;;;;;4902455;29;21031;-84
2022/12/18 01:28:47;;;;;;;31.13;15.17;;;-3.70;45.20;;;;;;4897157;29;20452;-84
2022/12/18 01:31:19;;;;;;;21.83;10.27;;;-3.90;45.30;;;;;;4892464;29;20483;-82
2022/12/18 01:33:50;;;;;;;27.27;16.80;;;-3.90;45.80;;;;;;4898143;29;20481;-84
2022/12/18 01:36:19;;;;;;;25.10;13.50;;;-3.80;46.00;;;;;;4915678;29;20459;-86
2022/12/18 01:38:48;;;;;;;17.20;8.53;;;-3.70;45.60;;;;;;4929077;28;20448;-82
2022/12/18 01:41:17;;;;;;;26.77;13.80;;;-3.60;45.00;;;;;;4887332;29;20458;-84
2022/12/18 01:43:47;;;;;;;17.47;11.60;;;-3.60;44.70;;;;;;4913816;29;20523;-85
2022/12/18 01:46:15;;;;;;;18.63;10.73;;;-3.60;44.50;;;;;;4899755;29;20954;-86
2022/12/18 01:48:43;;;;;;;24.00;12.07;;;-3.60;44.40;;;;;;4906125;29;20455;-84
2022/12/18 01:51:12;;;;;;;22.93;11.33;;;-3.70;44.50;;;;;;4894023;29;20471;-84
2022/12/18 01:53:41;;;;;;;15.63;10.90;;;-3.70;44.30;;;;;;4890493;29;20482;-83
2022/12/18 01:56:13;;;;;;;22.23;10.50;;;-3.70;44.20;;;;;;4893567;29;20480;-84
2022/12/18 01:58:46;;;;;;;11.90;10.70;;;-3.70;44.10;;;;;;4891986;29;20463;-85
2022/12/18 02:01:14;;;;;;;18.83;11.47;;;-3.70;43.90;;;;;;4907600;29;20604;-83
2022/12/18 02:03:43;;;;;;;23.30;11.27;;;-3.60;43.90;;;;;;4906616;29;20565;-84
2022/12/18 02:06:16;;;;;;;30.60;14.40;;;-3.60;44.00;;;;;;4929342;28;20467;-84
2022/12/18 02:08:56;;;;;;;19.97;9.90;;;-3.60;43.80;;;;;;4899079;29;20447;-84
2022/12/18 02:11:37;;;;;;;12.07;10.47;;;-3.70;44.00;;;;;;4918535;29;20929;-85
2022/12/18 02:14:17;;;;;;;15.73;9.47;;;-3.70;44.40;;;;;;4889832;29;20491;-84
2022/12/18 02:16:50;;;;;;;14.57;9.30;;;-3.70;44.50;;;;;;4929993;28;20462;-84
2022/12/18 02:19:33;;;;;;;21.00;9.43;;;-3.70;44.20;;;;;;4891243;29;20477;-86
2022/12/18 02:22:15;;;;;;;14.00;7.83;;;-3.80;44.00;;;;;;4928783;29;20982;-85
2022/12/18 02:24:58;;;;;;;12.13;8.00;;;-3.90;44.60;;;;;;4899256;29;21000;-84
2022/12/18 02:27:29;;;;;;;9.17;5.83;;;-3.90;45.00;;;;;;4876868;29;20463;-85
2022/12/18 02:29:58;;;;;;;15.57;10.23;;;-3.80;44.60;;;;;;4896713;29;20960;-84
2022/12/18 02:32:28;;;;;;;28.13;10.10;;;-3.80;45.00;;;;;;4923403;29;20721;-84
2022/12/18 02:34:58;;;;;;;20.53;12.30;;;-3.80;44.10;;;;;;4912529;29;20565;-84
2022/12/18 02:37:28;;;;;;;21.17;7.77;;;-3.80;43.90;;;;;;4886568;29;20467;-85
2022/12/18 02:39:59;;;;;;;22.07;12.77;;;-3.80;43.70;;;;;;4890506;29;20549;-86
2022/12/18 02:42:29;;;;;;;17.23;10.10;;;-3.80;43.50;;;;;;4886311;29;20467;-84
2022/12/18 02:44:57;;;;;;;24.67;10.10;;;-3.90;43.60;;;;;;4912499;29;20475;-85
2022/12/18 02:47:30;;;;;;;24.40;8.27;;;-3.80;43.60;;;;;;4913129;29;20458;-84
2022/12/18 02:50:10;;;;;;;13.37;9.07;;;-3.90;43.70;;;;;;4872934;29;20846;-85
2022/12/18 02:52:49;;;;;;;17.10;7.97;;;-3.90;44.50;;;;;;4898835;29;20946;-82
2022/12/18 02:55:29;;;;;;;19.33;7.20;;;-3.90;44.20;;;;;;4885975;29;20546;-84
2022/12/18 02:58:09;;;;;;;14.33;10.00;;;-3.90;43.60;;;;;;4912443;29;20567;-84
2022/12/18 03:00:42;;;;;;;15.70;9.63;;;-3.90;43.70;;;;;;4921996;29;20828;-86
2022/12/18 03:03:17;;;;;;;23.37;8.67;;;-4.00;44.00;;;;;;4915046;29;20546;-84
2022/12/18 03:05:50;;;;;;;16.53;8.77;;;-4.00;44.60;;;;;;4897586;29;20475;-84
2022/12/18 03:08:21;;;;;;;13.37;9.00;;;-3.90;44.40;;;;;;4897503;29;20459;-84
2022/12/18 03:10:56;;;;;;;18.03;10.47;;;-3.90;43.70;;;;;;4882918;29;20487;-84
2022/12/18 03:13:29;;;;;;;15.70;8.90;;;-3.90;43.40;;;;;;4869579;29;20514;-84
2022/12/18 03:15:59;;;;;;;19.43;10.47;;;-4.00;43.40;;;;;;4912293;29;20470;-86
2022/12/18 03:18:32;;;;;;;21.13;7.93;;;-4.20;44.00;;;;;;4882903;29;20468;-84
2022/12/18 03:21:03;;;;;;;19.47;11.10;;;-4.30;44.00;;;;;;4906076;29;20456;-85
2022/12/18 03:23:35;;;;;;;15.37;8.40;;;-4.30;44.20;;;;;;4930638;28;20980;-84
2022/12/18 03:26:07;;;;;;;18.10;9.77;;;-4.20;45.10;;;;;;4872169;29;20459;-83
2022/12/18 03:28:43;;;;;;;15.30;7.97;;;-4.10;44.70;;;;;;4877760;29;20454;-83
2022/12/18 03:31:13;;;;;;;14.30;8.33;;;-4.30;45.00;;;;;;4882026;29;21221;-84
2022/12/18 03:33:46;;;;;;;19.80;10.70;;;-4.80;45.60;;;;;;4906860;29;20471;-84
2022/12/18 03:36:15;;;;;;;15.90;7.87;;;-4.80;46.00;;;;;;4882609;29;20517;-84
2022/12/18 03:38:42;;;;;;;12.07;7.90;;;-4.60;45.80;;;;;;4880890;29;20974;-84
2022/12/18 03:41:19;;;;;;;8.27;7.00;;;-4.50;45.00;;;;;;4921783;29;21182;-85
2022/12/18 03:44:19;;;;;;;11.83;7.10;;;-4.60;44.80;;;;;;4910976;29;21082;-83
2022/12/18 03:46:55;;;;;;;21.60;10.17;;;-4.60;44.30;;;;;;4905632;29;20727;-85
2022/12/18 03:49:29;;;;;;;12.30;8.67;;;-4.50;44.20;;;;;;4929468;28;20457;-84
2022/12/18 03:52:05;;;;;;;18.63;8.40;;;-4.30;44.10;;;;;;4897970;29;20482;-85
2022/12/18 03:54:36;;;;;;;14.57;10.87;;;-4.20;43.90;;;;;;4892703;29;20482;-83
2022/12/18 03:57:15;;;;;;;7.43;5.93;;;-4.20;43.60;;;;;;4900913;29;20887;-85
2022/12/18 03:59:46;;;;;;;19.70;9.23;;;-4.30;44.30;;;;;;4879890;29;20487;-84
2022/12/18 04:02:16;;;;;;;14.13;10.43;;;-4.70;45.00;;;;;;4912057;29;20451;-85
2022/12/18 04:04:45;;;;;;;13.90;7.90;;;-4.80;45.00;;;;;;4919856;29;20981;-83
2022/12/18 04:07:14;;;;;;;44.97;8.50;;;-4.80;45.10;;;;;;4900926;29;20452;-84
2022/12/18 04:09:43;;;;;;;20.00;9.93;;;-4.70;45.30;;;;;;4894892;29;20467;-83
2022/12/18 04:12:12;;;;;;;15.00;8.60;;;-4.50;45.20;;;;;;4929013;29;20464;-83
2022/12/18 04:14:39;;;;;;;14.33;6.17;;;-4.40;44.40;;;;;;4894857;29;20490;-84
2022/12/18 04:17:10;;;;;;;20.90;9.47;;;-4.40;44.00;;;;;;4884709;29;21053;-84
2022/12/18 04:19:37;;;;;;;19.80;9.20;;;-4.40;43.70;;;;;;4885651;29;20467;-84
2022/12/18 04:22:04;;;;;;;16.97;7.47;;;-4.30;43.90;;;;;;4920799;29;20475;-83
2022/12/18 04:24:37;;;;;;;23.47;7.83;;;-4.30;43.60;;;;;;4928015;29;20699;-84
2022/12/18 04:27:12;;;;;;;14.40;8.47;;;-4.30;43.70;;;;;;4914353;29;20469;-85
2022/12/18 04:29:43;;;;;;;11.70;9.07;;;-4.20;43.70;;;;;;4903469;29;20828;-84
2022/12/18 04:32:12;;;;;;;30.33;11.10;;;-4.20;43.40;;;;;;4874197;29;20556;-86
2022/12/18 04:34:40;;;;;;;15.80;8.73;;;-4.20;43.00;;;;;;4887022;29;20463;-83
2022/12/18 04:37:08;;;;;;;19.20;9.17;;;-4.20;43.00;;;;;;4904266;29;20451;-83
2022/12/18 04:39:35;;;;;;;14.77;8.47;;;-4.20;43.20;;;;;;4882668;29;20462;-82
2022/12/18 04:42:07;;;;;;;19.00;10.17;;;-4.20;43.10;;;;;;4866448;29;20984;-83
2022/12/18 04:44:35;;;;;;;15.43;10.70;;;-4.20;42.70;;;;;;4900940;29;20536;-84
2022/12/18 04:47:02;;;;;;;12.17;8.83;;;-4.30;42.60;;;;;;4895901;29;20732;-82
2022/12/18 04:49:30;;;;;;;10.43;7.10;;;-4.30;42.80;;;;;;4915948;29;20478;-83
2022/12/18 04:51:57;;;;;;;20.00;7.07;;;-4.40;42.80;;;;;;4872121;29;20467;-81
2022/12/18 04:54:25;;;;;;;12.83;7.17;;;-4.40;43.10;;;;;;4897346;29;20569;-82
2022/12/18 04:56:52;;;;;;;15.93;9.23;;;-4.70;44.40;;;;;;4868940;29;20470;-82
2022/12/18 04:59:19;;;;;;;14.27;9.00;;;-4.60;44.70;;;;;;4888534;29;21020;-81
2022/12/18 05:01:46;;;;;;;12.70;8.27;;;-4.50;43.80;;;;;;4901650;29;20502;-81
2022/12/18 05:04:14;;;;;;;20.40;11.03;;;-4.60;43.70;;;;;;4898292;29;20898;-81
2022/12/18 05:06:42;;;;;;;33.60;10.27;;;-4.60;43.80;;;;;;4914529;29;20973;-82
2022/12/18 05:09:09;;;;;;;16.30;8.90;;;-4.60;44.00;;;;;;4899119;29;20545;-84
2022/12/18 05:11:36;;;;;;;45.13;11.47;;;-4.60;44.00;;;;;;4915288;29;20570;-82
2022/12/18 05:14:03;;;;;;;18.43;9.80;;;-4.60;43.80;;;;;;4912058;29;21260;-82
2022/12/18 05:16:31;;;;;;;11.70;7.53;;;-4.50;43.40;;;;;;4894885;29;20454;-79
2022/12/18 05:18:58;;;;;;;18.83;9.03;;;-4.50;43.30;;;;;;4898860;29;20554;-83
2022/12/18 05:21:25;;;;;;;15.30;10.37;;;-4.40;43.20;;;;;;4913335;29;20446;-83
2022/12/18 05:23:53;;;;;;;19.23;8.43;;;-4.50;43.10;;;;;;4926841;29;20470;-83
2022/12/18 05:26:20;;;;;;;22.40;10.40;;;-4.50;43.50;;;;;;4913404;29;20458;-83
2022/12/18 05:28:47;;;;;;;13.67;8.70;;;-4.40;43.70;;;;;;4914303;29;20447;-80
2022/12/18 05:31:14;;;;;;;15.37;9.00;;;-4.40;43.70;;;;;;4911455;29;20458;-81
2022/12/18 05:33:42;;;;;;;12.63;7.97;;;-4.40;43.30;;;;;;4873749;29;20478;-81
2022/12/18 05:36:10;;;;;;;16.33;8.10;;;-4.50;42.80;;;;;;4927416;29;20450;-81
2022/12/18 05:38:39;;;;;;;20.03;10.23;;;-4.60;43.00;;;;;;4897092;29;20908;-81
2022/12/18 05:41:09;;;;;;;25.00;11.40;;;-4.50;43.30;;;;;;4920484;29;20460;-82
2022/12/18 05:43:38;;;;;;;17.13;9.37;;;-4.50;43.20;;;;;;4905967;29;20489;-81
2022/12/18 05:46:06;;;;;;;16.50;9.07;;;-4.50;42.90;;;;;;4898184;29;20471;-82
2022/12/18 05:48:33;;;;;;;10.17;7.93;;;-4.50;42.70;;;;;;4883930;29;20462;-80
2022/12/18 05:51:05;;;;;;;24.10;11.63;;;-4.60;42.80;;;;;;4896465;29;20464;-81
2022/12/18 05:53:33;;;;;;;11.47;9.07;;;-4.70;43.30;;;;;;4914385;29;20471;-82
2022/12/18 05:56:01;;;;;;;19.83;10.50;;;-4.80;44.00;;;;;;4885872;29;20459;-82
2022/12/18 05:58:30;;;;;;;14.23;9.93;;;-4.70;44.10;;;;;;4927034;28;20964;-81
2022/12/18 06:00:57;;;;;;;20.10;10.63;;;-4.70;43.70;;;;;;4911362;29;20463;-81
2022/12/18 06:03:24;;;;;;;15.10;8.73;;;-4.70;43.50;;;;;;4910085;29;21192;-83
2022/12/18 06:05:51;;;;;;;14.20;8.57;;;-4.60;43.40;;;;;;4897675;29;20737;-81
2022/12/18 06:08:18;;;;;;;19.87;10.40;;;-4.60;43.20;;;;;;4914036;29;20460;-80
2022/12/18 06:10:52;;;;;;;26.67;12.37;;;-4.70;43.30;;;;;;4872887;29;20535;-82
2022/12/18 06:13:19;;;;;;;11.43;7.43;;;-4.70;43.30;;;;;;4887752;29;20487;-81
2022/12/18 06:15:47;;;;;;;12.80;7.70;;;-4.70;43.10;;;;;;4927388;29;20448;-82
2022/12/18 06:18:14;;;;;;;21.03;10.60;;;-4.80;42.90;;;;;;4895149;29;20468;-82
2022/12/18 06:20:41;;;;;;;16.63;10.90;;;-4.80;43.40;;;;;;4915881;29;20462;-81
2022/12/18 06:23:09;;;;;;;22.30;12.07;;;-4.90;44.00;;;;;;4912381;29;21359;-81
2022/12/18 06:25:39;;;;;;;16.23;9.60;;;-4.90;44.00;;;;;;4902733;29;20616;-82
2022/12/18 06:28:06;;;;;;;18.60;8.43;;;-4.80;44.10;;;;;;4925141;29;20447;-82
2022/12/18 06:30:33;;;;;;;16.17;10.10;;;-4.70;43.80;;;;;;4913868;29;20983;-80
2022/12/18 06:33:01;;;;;;;23.17;11.50;;;-4.70;43.20;;;;;;4909744;29;20479;-83
2022/12/18 06:35:28;;;;;;;25.00;8.60;;;-4.70;43.10;;;;;;4926995;28;20451;-83
2022/12/18 06:37:55;;;;;;;27.60;11.27;;;-4.70;43.00;;;;;;4885096;29;20469;-81
2022/12/18 06:40:22;;;;;;;14.23;9.70;;;-4.70;43.10;;;;;;4896274;29;20456;-82
2022/12/18 06:42:49;;;;;;;22.33;12.17;;;-4.80;43.40;;;;;;4909441;29;20455;-81
2022/12/18 06:45:16;;;;;;;24.17;9.50;;;-4.80;43.50;;;;;;4891818;29;20482;-82
2022/12/18 06:47:43;;;;;;;22.27;10.00;;;-4.70;43.60;;;;;;4899269;29;20467;-83
2022/12/18 06:50:12;;;;;;;15.20;9.00;;;-4.70;43.40;;;;;;4895970;29;20463;-82
2022/12/18 06:52:40;;;;;;;15.20;8.87;;;-4.70;43.40;;;;;;4897295;29;21011;-83
2022/12/18 06:55:08;;;;;;;19.70;10.17;;;-4.60;43.70;;;;;;4896878;29;20483;-83
2022/12/18 06:57:35;;;;;;;10.93;7.97;;;-4.70;44.10;;;;;;4882850;29;20456;-81
2022/12/18 07:00:02;;;;;;;19.73;10.97;;;-4.70;44.70;;;;;;4897424;29;20444;-82
2022/12/18 07:02:29;;;;;;;22.70;12.03;;;-4.70;45.40;;;;;;4913135;29;20993;-84
2022/12/18 07:04:56;;;;;;;16.63;9.87;;;-4.80;47.00;;;;;;4896152;29;21000;-82
2022/12/18 07:07:25;;;;;;;19.07;10.57;;;-4.90;47.60;;;;;;4920643;29;21277;-84
2022/12/18 07:09:52;;;;;;;20.67;10.70;;;-5.10;48.40;;;;;;4881575;29;20488;-81
2022/12/18 07:12:19;;;;;;;20.87;10.60;;;-5.10;48.60;;;;;;4912140;29;21008;-83
2022/12/18 07:14:46;;;;;;;22.33;12.97;;;-5.20;49.30;;;;;;4880318;29;20470;-80
2022/12/18 07:17:14;;;;;;;16.50;11.30;;;-5.40;51.40;;;;;;4898328;29;20455;-80
2022/12/18 07:19:40;;;;;;;20.60;10.03;;;-5.40;51.90;;;;;;4914429;29;20490;-81
2022/12/18 07:22:07;;;;;;;41.73;12.23;;;-5.50;51.70;;;;;;4896270;29;20442;-82
2022/12/18 07:24:36;;;;;;;13.00;10.43;;;-5.40;51.70;;;;;;4903341;29;20976;-82
2022/12/18 07:27:03;;;;;;;16.87;10.30;;;-5.20;51.70;;;;;;4913278;29;20452;-82
2022/12/18 07:29:30;;;;;;;9.73;8.00;;;-5.20;51.40;;;;;;4900628;29;20489;-81
2022/12/18 07:31:57;;;;;;;15.90;10.53;;;-5.00;51.20;;;;;;4913332;29;20971;-83
2022/12/18 07:34:24;;;;;;;14.07;8.40;;;-4.80;50.60;;;;;;4891722;29;20744;-82
2022/12/18 07:36:51;;;;;;;20.43;9.30;;;-4.40;50.60;;;;;;4916479;29;20957;-85
2022/12/18 07:39:18;;;;;;;13.43;8.53;;;-4.40;49.60;;;;;;4889884;29;20466;-80
2022/12/18 07:42:30;;;;;;;19.87;10.70;;;-4.30;49.60;;;;;;4898474;29;20463;-80
2022/12/18 07:44:33;;;;;;;16.57;9.93;;;-4.20;50.00;;;;;;4899183;29;20483;-83
2022/12/18 07:47:00;;;;;;;29.00;10.63;;;-4.20;50.10;;;;;;4929923;29;20976;-82
2022/12/18 07:49:28;;;;;;;30.97;14.70;;;-4.40;50.60;;;;;;4903176;29;20912;-84
2022/12/18 07:51:55;;;;;;;17.10;13.40;;;-4.30;51.10;;;;;;4913889;29;20452;-83
2022/12/18 07:54:22;;;;;;;18.27;11.40;;;-4.00;50.40;;;;;;4899114;29;20474;-83
2022/12/18 07:56:51;;;;;;;39.63;13.80;;;-3.80;50.20;;;;;;4905605;29;20483;-84
2022/12/18 07:59:18;;;;;;;29.50;14.87;;;-3.80;50.50;;;;;;4874627;29;20468;-83
2022/12/18 08:01:45;;;;;;;35.70;15.23;;;-3.70;50.60;;;;;;4915491;29;20451;-80
2022/12/18 08:04:12;;;;;;;30.77;12.40;;;-3.50;50.20;;;;;;4883707;29;20482;-83
2022/12/18 08:06:39;;;;;;;56.40;17.07;;;-3.60;50.60;;;;;;4899856;29;20458;-81
2022/12/18 08:09:07;;;;;;;56.10;18.10;;;-3.60;50.90;;;;;;4902230;29;20450;-82
2022/12/18 08:11:34;;;;;;;28.03;15.70;;;-3.60;50.70;;;;;;4887045;29;20486;-83
2022/12/18 08:14:03;;;;;;;46.60;17.90;;;-3.60;51.10;;;;;;4903484;29;20487;-81
2022/12/18 08:16:30;;;;;;;36.57;15.93;;;-3.50;51.30;;;;;;4909955;29;20472;-82
2022/12/18 08:18:57;;;;;;;36.07;18.83;;;-3.60;52.00;;;;;;4882549;29;20475;-83
2022/12/18 08:21:26;;;;;;;23.37;13.77;;;-3.60;52.30;;;;;;4912698;29;20849;-82
2022/12/18 08:23:54;;;;;;;36.77;17.23;;;-3.80;52.80;;;;;;4882538;29;20485;-81
2022/12/18 08:26:22;;;;;;;35.90;14.20;;;-3.60;53.10;;;;;;4894844;29;20957;-81
2022/12/18 08:28:51;;;;;;;29.43;15.10;;;-3.50;53.30;;;;;;4901622;29;20455;-80
2022/12/18 08:31:20;;;;;;;36.87;15.70;;;-3.40;53.10;;;;;;4892251;29;20519;-83
2022/12/18 08:33:50;;;;;;;39.87;16.60;;;-3.30;53.30;;;;;;4881243;29;20927;-80
2022/12/18 08:36:17;;;;;;;33.13;13.40;;;-3.20;53.50;;;;;;4926495;29;20452;-83
2022/12/18 08:38:44;;;;;;;48.80;18.97;;;-3.20;53.50;;;;;;4911873;29;20455;-84
2022/12/18 08:41:12;;;;;;;25.77;13.30;;;-3.00;53.70;;;;;;4911336;29;21139;-82
2022/12/18 08:46:27;;;;;;;40.53;22.43;;;-2.80;53.30;;;;;;4884631;29;20498;-80
2022/12/18 08:48:55;;;;;;;36.07;15.90;;;-2.70;53.00;;;;;;4893077;29;20478;-82
2022/12/18 08:51:23;;;;;;;33.43;15.90;;;-2.60;52.90;;;;;;4895776;29;20515;-81
2022/12/18 08:53:50;;;;;;;36.07;15.07;;;-2.80;53.40;;;;;;4893762;29;20474;-82
2022/12/18 08:56:17;;;;;;;39.00;19.43;;;-2.80;53.80;;;;;;4911233;29;20836;-83
2022/12/18 08:58:44;;;;;;;40.70;20.10;;;-2.60;53.60;;;;;;4901663;29;20490;-83
2022/12/18 09:01:13;;;;;;;41.07;19.53;;;-2.50;53.50;;;;;;4902492;29;20470;-83
2022/12/18 09:03:41;;;;;;;43.13;16.80;;;-2.60;53.40;;;;;;4925590;28;20852;-83
2022/12/18 09:06:09;;;;;;;53.47;20.37;;;-2.60;54.30;;;;;;4902488;29;20460;-82
2022/12/18 09:08:37;;;;;;;45.53;20.17;;;-2.30;53.90;;;;;;4912950;29;20707;-82
2022/12/18 09:11:04;;;;;;;37.33;17.87;;;-2.50;54.10;;;;;;4898115;29;20573;-83
2022/12/18 09:13:31;;;;;;;55.93;25.07;;;-2.60;54.40;;;;;;4924644;29;21160;-83
2022/12/18 09:15:58;;;;;;;57.33;25.07;;;-2.70;54.90;;;;;;4885534;29;20463;-83
2022/12/18 09:18:25;;;;;;;44.70;16.17;;;-2.50;54.80;;;;;;4925547;29;20466;-85
2022/12/18 09:20:53;;;;;;;38.53;19.40;;;-2.50;54.60;;;;;;4911542;29;20656;-82
2022/12/18 09:23:21;;;;;;;29.00;13.90;;;-2.50;55.00;;;;;;4910940;29;20555;-83
2022/12/18 09:25:48;;;;;;;36.43;14.97;;;-2.40;55.10;;;;;;4895872;29;20459;-81
2022/12/18 09:28:17;;;;;;;29.10;13.87;;;-2.70;55.90;;;;;;4911615;29;20463;-84
2022/12/18 09:30:46;;;;;;;26.57;10.13;;;-2.60;55.90;;;;;;4912004;29;21002;-82
2022/12/18 09:33:13;;;;;;;21.83;11.57;;;-2.80;56.30;;;;;;4896713;29;20475;-84
2022/12/18 09:35:42;;;;;;;35.63;14.43;;;-2.70;56.80;;;;;;4907196;29;20535;-83
2022/12/18 09:38:13;;;;;;;35.57;13.90;;;-2.50;56.50;;;;;;4901544;29;20467;-83
2022/12/18 09:40:44;;;;;;;22.20;13.63;;;-2.50;56.10;;;;;;4929681;28;20470;-83
2022/12/18 09:43:18;;;;;;;30.80;13.30;;;-2.50;57.00;;;;;;4915370;29;20452;-83
2022/12/18 09:45:49;;;;;;;36.93;13.63;;;-2.40;56.90;;;;;;4891465;29;20481;-82
2022/12/18 09:48:23;;;;;;;30.97;14.63;;;-2.20;56.70;;;;;;4915837;29;20779;-82
2022/12/18 09:50:52;;;;;;;20.87;12.87;;;-2.00;56.30;;;;;;4865701;29;20459;-83
2022/12/18 09:53:30;;;;;;;21.37;13.60;;;-1.60;55.70;;;;;;4916705;29;20483;-84
2022/12/18 09:55:58;;;;;;;16.10;8.27;;;-1.40;55.00;;;;;;4912076;29;20463;-81
2022/12/18 09:58:30;;;;;;;41.57;15.57;;;-1.40;54.40;;;;;;4915033;29;20454;-83
2022/12/18 10:00:57;;;;;;;48.27;15.97;;;-1.50;54.60;;;;;;4910802;29;20485;-82
2022/12/18 10:03:24;;;;;;;29.50;12.67;;;-1.70;55.00;;;;;;4884809;29;21009;-83
2022/12/18 10:06:02;;;;;;;36.13;11.47;;;-1.90;56.10;;;;;;4897234;29;20478;-83
2022/12/18 10:08:42;;;;;;;38.60;15.70;;;-1.70;56.30;;;;;;4901833;29;20464;-82
2022/12/18 10:11:33;;;;;;;22.53;11.53;;;-1.60;56.20;;;;;;4890283;29;20463;-83
2022/12/18 10:14:06;;;;;;;33.70;11.70;;;-1.50;55.80;;;;;;4904000;29;20487;-84
2022/12/18 10:16:42;;;;;;;28.43;14.37;;;-1.60;56.00;;;;;;4919941;29;20804;-84
2022/12/18 10:19:33;;;;;;;33.23;13.80;;;-1.50;56.40;;;;;;4927612;29;20465;-84
2022/12/18 10:22:11;;;;;;;28.67;13.60;;;-1.30;56.00;;;;;;4895453;29;20458;-83
2022/12/18 10:24:45;;;;;;;34.57;12.53;;;-1.20;55.80;;;;;;4897921;29;20473;-84
2022/12/18 10:27:16;;;;;;;30.87;16.93;;;-1.00;55.50;;;;;;4911799;29;20459;-82
2022/12/18 10:29:45;;;;;;;32.10;14.00;;;-0.90;55.10;;;;;;4928295;28;20981;-84
2022/12/18 10:32:16;;;;;;;38.07;14.87;;;-1.10;55.40;;;;;;4890240;29;20491;-83
2022/12/18 10:34:47;;;;;;;39.17;15.67;;;-1.00;55.60;;;;;;4906740;29;21008;-84
2022/12/18 10:37:19;;;;;;;32.53;17.03;;;-0.80;55.20;;;;;;4893152;29;20467;-83
2022/12/18 10:40:05;;;;;;;33.70;16.40;;;-0.90;55.10;;;;;;4907841;29;20468;-84
2022/12/18 10:42:32;;;;;;;30.43;14.20;;;-1.10;55.70;;;;;;4916286;29;20841;-84
2022/12/18 10:45:04;;;;;;;53.00;18.13;;;-0.80;55.70;;;;;;4890224;29;20816;-82
2022/12/18 10:47:31;;;;;;;38.77;17.30;;;-0.70;55.20;;;;;;4919477;29;20464;-84
2022/12/18 10:49:58;;;;;;;37.70;15.87;;;-0.70;55.40;;;;;;4917700;29;20951;-84
2022/12/18 10:52:26;;;;;;;41.43;16.47;;;-1.00;55.70;;;;;;4918394;29;20448;-83
2022/12/18 10:55:00;;;;;;;35.30;14.60;;;-1.00;56.30;;;;;;4914473;29;20992;-84
2022/12/18 10:57:37;;;;;;;29.97;12.80;;;-0.80;55.90;;;;;;4907575;29;20466;-84
2022/12/18 11:00:25;;;;;;;34.93;13.53;;;-0.70;55.90;;;;;;4900001;29;20445;-84
2022/12/18 11:02:52;;;;;;;35.13;16.40;;;-0.70;55.70;;;;;;4892649;29;20496;-85
2022/12/18 11:05:29;;;;;;;31.10;14.60;;;-0.60;55.80;;;;;;4902630;29;20486;-83
2022/12/18 11:07:57;;;;;;;30.17;16.77;;;-0.50;55.70;;;;;;4930330;29;20946;-84
2022/12/18 11:10:30;;;;;;;46.20;17.37;;;-0.30;55.70;;;;;;4917446;29;20575;-84
2022/12/18 11:12:57;;;;;;;33.30;14.93;;;-0.20;55.50;;;;;;4903976;29;20467;-85
2022/12/18 11:15:30;;;;;;;34.33;14.23;;;-0.20;55.60;;;;;;4900103;29;20475;-83
2022/12/18 11:17:58;;;;;;;28.73;12.37;;;-0.20;55.70;;;;;;4917184;29;20455;-84
2022/12/18 11:20:32;;;;;;;34.13;14.77;;;-0.10;55.30;;;;;;4876289;29;20448;-83
2022/12/18 11:23:01;;;;;;;36.77;15.67;;;-0.30;56.00;;;;;;4915618;29;20459;-85
2022/12/18 11:25:31;;;;;;;28.03;13.80;;;-0.10;55.70;;;;;;4916964;29;20439;-84
2022/12/18 11:28:00;;;;;;;31.40;14.40;;;0.00;55.40;;;;;;4930958;28;20451;-85
2022/12/18 11:30:29;;;;;;;32.70;14.57;;;0.00;55.40;;;;;;4891606;29;21451;-85
2022/12/18 11:33:01;;;;;;;36.27;14.30;;;0.00;55.70;;;;;;4931026;29;20452;-85
2022/12/18 11:35:38;;;;;;;28.00;14.97;;;-0.20;55.90;;;;;;4892378;29;20910;-82
2022/12/18 11:38:13;;;;;;;25.80;13.00;;;-0.10;56.30;;;;;;4898251;29;20530;-85
2022/12/18 11:40:46;;;;;;;36.53;15.30;;;0.20;55.80;;;;;;4909034;29;20506;-85
2022/12/18 11:43:17;;;;;;;37.40;15.00;;;0.30;55.60;;;;;;4915469;29;20443;-84
2022/12/18 11:45:52;;;;;;;46.73;17.60;;;0.60;55.60;;;;;;4917761;29;20439;-85
2022/12/18 11:48:25;;;;;;;31.57;17.53;;;0.80;54.90;;;;;;4917445;29;20444;-86
2022/12/18 11:50:54;;;;;;;36.23;16.60;;;0.80;54.80;;;;;;4914660;29;20809;-86
2022/12/18 11:53:21;;;;;;;35.23;14.83;;;0.80;54.50;;;;;;4885640;29;21003;-85
2022/12/18 11:56:03;;;;;;;38.43;16.23;;;0.50;55.70;;;;;;4914820;29;20455;-85
2022/12/18 11:58:45;;;;;;;36.17;15.50;;;0.50;55.90;;;;;;4884834;29;20459;-86
2022/12/18 12:01:21;;;;;;;36.37;15.80;;;0.70;55.70;;;;;;4890643;29;20451;-85
2022/12/18 12:04:15;;;;;;;31.53;15.80;;;0.60;55.60;;;;;;4928515;29;21190;-85
2022/12/18 12:06:52;;;;;;;28.07;14.83;;;0.70;56.00;;;;;;4867586;29;20463;-84
2022/12/18 12:09:23;;;;;;;27.57;17.77;;;0.60;55.70;;;;;;4933683;28;20463;-86
2022/12/18 12:12:13;;;;;;;30.67;15.83;;;0.50;56.10;;;;;;4888378;29;20967;-84
2022/12/18 12:14:50;;;;;;;31.00;13.63;;;0.40;56.10;;;;;;4914106;29;20475;-85
2022/12/18 12:17:29;;;;;;;33.00;16.27;;;0.60;56.10;;;;;;4884961;29;20462;-87
2022/12/18 12:20:03;;;;;;;39.27;14.77;;;0.70;56.20;;;;;;4891811;29;20832;-85
2022/12/18 12:22:40;;;;;;;35.57;16.33;;;0.90;55.80;;;;;;4917658;29;20478;-84
2022/12/18 12:25:20;;;;;;;30.03;14.07;;;0.60;55.70;;;;;;4914136;29;21238;-85
2022/12/18 12:27:58;;;;;;;39.60;15.40;;;0.50;56.40;;;;;;4882599;29;20470;-84
2022/12/18 12:30:36;;;;;;;37.03;15.77;;;0.90;56.40;;;;;;4899242;29;21010;-85
2022/12/18 12:33:16;;;;;;;22.80;14.00;;;1.10;55.70;;;;;;4926529;28;20451;-83
2022/12/18 12:35:52;;;;;;;31.23;13.83;;;1.10;55.60;;;;;;4898988;29;20979;-85
2022/12/18 12:38:23;;;;;;;31.77;14.90;;;1.10;55.30;;;;;;4891542;29;20451;-85
2022/12/18 12:40:53;;;;;;;33.90;17.07;;;0.80;56.30;;;;;;4917187;29;20464;-85
2022/12/18 12:43:41;;;;;;;29.07;13.40;;;0.80;56.60;;;;;;4900645;29;20988;-85
2022/12/18 12:46:10;;;;;;;26.23;12.23;;;0.80;56.40;;;;;;4876423;29;21042;-86
2022/12/18 12:48:44;;;;;;;29.67;14.80;;;0.70;56.70;;;;;;4913979;29;20455;-85
2022/12/18 12:51:19;;;;;;;33.83;13.50;;;0.80;56.80;;;;;;4898720;29;20796;-86
2022/12/18 12:53:46;;;;;;;32.33;14.30;;;0.80;57.10;;;;;;4901128;29;20488;-86